createdAt,value
2019-05-19T00:01:31.967Z,15.26
2019-05-19T00:04:01.657Z,15.19
2019-05-19T00:06:31.802Z,15.17
2019-05-19T00:09:02.044Z,15.14
2019-05-19T00:11:35.265Z,15.14
2019-05-19T00:14:05.390Z,15.08
2019-05-19T00:16:34.929Z,15.03
2019-05-19T00:19:04.709Z,15.03
2019-05-19T00:21:34.594Z,15.00
2019-05-19T00:24:04.349Z,15.05
2019-05-19T00:26:34.299Z,15.08
2019-05-19T00:29:04.169Z,15.07
2019-05-19T00:31:34.486Z,15.08
2019-05-19T00:34:04.271Z,15.05
2019-05-19T00:36:36.038Z,14.98
2019-05-19T00:39:07.020Z,14.92
2019-05-19T00:41:38.108Z,14.99
2019-05-19T00:44:07.973Z,15.06
2019-05-19T00:46:37.819Z,15.13
2019-05-19T00:49:08.083Z,15.14
2019-05-19T00:51:39.343Z,15.16
2019-05-19T00:54:10.070Z,15.19
2019-05-19T00:56:40.588Z,15.17
2019-05-19T00:59:10.721Z,15.20
2019-05-19T01:01:42.652Z,15.15
2019-05-19T01:04:12.563Z,15.15
2019-05-19T01:06:42.320Z,15.14
2019-05-19T01:09:12.174Z,15.06
2019-05-19T01:11:44.360Z,15.01
2019-05-19T01:14:15.445Z,14.96
2019-05-19T01:16:46.534Z,14.90
2019-05-19T01:19:17.166Z,14.86
2019-05-19T01:21:48.460Z,14.82
2019-05-19T01:24:22.213Z,14.81
2019-05-19T01:26:51.716Z,14.81
2019-05-19T01:29:21.852Z,14.85
2019-05-19T01:31:52.736Z,14.86
2019-05-19T01:34:22.639Z,14.85
2019-05-19T01:36:52.485Z,14.80
2019-05-19T01:39:23.258Z,14.74
2019-05-19T01:41:52.756Z,14.71
2019-05-19T01:44:22.483Z,14.70
2019-05-19T01:46:52.332Z,14.68
2019-05-19T01:49:22.134Z,14.66
2019-05-19T01:51:51.927Z,14.62
2019-05-19T01:54:26.907Z,14.61
2019-05-19T01:56:56.398Z,14.61
2019-05-19T01:59:26.290Z,14.58
2019-05-19T02:01:56.384Z,14.57
2019-05-19T02:04:27.846Z,14.58
2019-05-19T02:07:01.576Z,14.56
2019-05-19T02:09:32.414Z,14.54
2019-05-19T02:12:07.922Z,14.53
2019-05-19T02:14:38.221Z,14.56
2019-05-19T02:17:07.891Z,14.56
2019-05-19T02:19:39.137Z,14.51
2019-05-19T02:22:09.935Z,14.50
2019-05-19T02:24:41.123Z,14.46
2019-05-19T02:27:10.762Z,14.43
2019-05-19T02:29:40.528Z,14.41
2019-05-19T02:32:10.750Z,14.39
2019-05-19T02:34:41.389Z,14.38
2019-05-19T02:37:12.006Z,14.35
2019-05-19T02:39:41.545Z,14.36
2019-05-19T02:42:13.054Z,14.35
2019-05-19T02:44:43.069Z,14.34
2019-05-19T02:47:15.184Z,14.32
2019-05-19T02:49:49.086Z,14.31
2019-05-19T02:52:20.153Z,14.27
2019-05-19T02:54:50.307Z,14.22
2019-05-19T02:57:21.394Z,14.20
2019-05-19T02:59:51.914Z,14.20
2019-05-19T03:02:22.154Z,14.18
2019-05-19T03:04:53.818Z,14.18
2019-05-19T03:07:23.951Z,14.21
2019-05-19T03:09:53.493Z,14.20
2019-05-19T03:12:23.332Z,14.18
2019-05-19T03:14:52.987Z,14.15
2019-05-19T03:17:22.793Z,14.12
2019-05-19T03:19:53.191Z,14.08
2019-05-19T03:22:24.472Z,14.08
2019-05-19T03:24:54.287Z,14.08
2019-05-19T03:27:24.238Z,14.07
2019-05-19T03:29:58.279Z,14.06
2019-05-19T03:32:33.644Z,14.08
2019-05-19T03:35:04.094Z,14.09
2019-05-19T03:37:33.773Z,14.11
2019-05-19T03:40:06.461Z,14.15
2019-05-19T03:42:36.813Z,14.15
2019-05-19T03:45:07.517Z,14.15
2019-05-19T03:47:37.596Z,14.14
2019-05-19T03:50:08.350Z,14.13
2019-05-19T03:52:38.415Z,14.14
2019-05-19T03:55:08.559Z,14.14
2019-05-19T03:57:40.466Z,14.13
2019-05-19T04:00:11.103Z,14.13
2019-05-19T04:02:42.519Z,14.15
2019-05-19T04:05:12.449Z,14.23
2019-05-19T04:07:42.750Z,14.28
2019-05-19T04:10:13.098Z,14.31
2019-05-19T04:12:42.783Z,14.31
2019-05-19T04:15:12.836Z,14.35
2019-05-19T04:17:44.352Z,14.40
2019-05-19T04:20:14.567Z,14.44
2019-05-19T04:22:44.452Z,14.49
2019-05-19T04:25:21.191Z,14.57
2019-05-19T04:27:51.198Z,14.62
2019-05-19T04:30:22.335Z,14.68
2019-05-19T04:32:52.239Z,14.71
2019-05-19T04:35:22.415Z,14.74
2019-05-19T04:37:52.654Z,14.80
2019-05-19T04:40:23.567Z,14.78
2019-05-19T04:42:53.901Z,14.81
2019-05-19T04:45:23.888Z,14.81
2019-05-19T04:47:53.680Z,14.87
2019-05-19T04:50:23.319Z,14.90
2019-05-19T04:52:53.057Z,14.97
2019-05-19T04:55:22.865Z,15.03
2019-05-19T04:57:52.542Z,15.06
2019-05-19T05:00:22.395Z,15.08
2019-05-19T05:02:52.264Z,15.14
2019-05-19T05:05:22.327Z,15.20
2019-05-19T05:07:52.715Z,15.25
2019-05-19T05:10:23.602Z,15.29
2019-05-19T05:12:53.451Z,15.36
2019-05-19T05:15:24.437Z,15.41
2019-05-19T05:17:54.041Z,15.46
2019-05-19T05:20:24.735Z,15.49
2019-05-19T05:22:55.021Z,15.52
2019-05-19T05:25:24.633Z,15.59
2019-05-19T05:27:54.040Z,15.60
2019-05-19T05:30:24.107Z,15.66
2019-05-19T05:32:53.837Z,15.70
2019-05-19T05:35:23.747Z,15.79
2019-05-19T05:37:59.559Z,15.77
2019-05-19T05:40:31.568Z,15.91
2019-05-19T05:43:01.279Z,15.98
2019-05-19T05:45:32.255Z,16.05
2019-05-19T05:48:03.763Z,16.10
2019-05-19T05:50:35.100Z,16.13
2019-05-19T05:53:05.214Z,16.17
2019-05-19T05:55:36.147Z,16.21
2019-05-19T05:58:07.955Z,16.22
2019-05-19T06:00:37.918Z,16.27
2019-05-19T06:03:09.372Z,16.28
2019-05-19T06:05:39.440Z,16.32
2019-05-19T06:08:09.275Z,16.33
2019-05-19T06:10:38.881Z,16.36
2019-05-19T06:13:10.184Z,16.38
2019-05-19T06:15:41.223Z,16.43
2019-05-19T06:18:11.295Z,16.49
2019-05-19T06:20:48.246Z,16.55
2019-05-19T06:23:18.053Z,16.64
2019-05-19T06:25:48.343Z,16.69
2019-05-19T06:28:19.565Z,16.69
2019-05-19T06:30:50.467Z,16.77
2019-05-19T06:33:20.766Z,16.88
2019-05-19T06:35:52.576Z,16.91
2019-05-19T06:38:22.348Z,16.95
2019-05-19T06:40:52.201Z,17.04
2019-05-19T06:43:22.441Z,17.08
2019-05-19T06:45:53.752Z,17.13
2019-05-19T06:48:24.843Z,17.26
2019-05-19T06:50:55.709Z,17.34
2019-05-19T06:53:25.435Z,17.42
2019-05-19T06:55:56.441Z,17.53
2019-05-19T06:58:28.435Z,17.63
2019-05-19T07:00:59.341Z,17.76
2019-05-19T07:03:29.209Z,17.82
2019-05-19T07:05:59.495Z,17.90
2019-05-19T07:08:33.877Z,17.93
2019-05-19T07:11:05.330Z,17.92
2019-05-19T07:13:35.326Z,17.96
2019-05-19T07:16:05.179Z,17.94
2019-05-19T07:18:35.063Z,17.98
2019-05-19T07:21:05.360Z,18.10
2019-05-19T07:23:35.987Z,18.22
2019-05-19T07:26:07.017Z,18.21
2019-05-19T07:28:37.859Z,18.23
2019-05-19T07:31:07.700Z,18.35
2019-05-19T07:33:38.864Z,18.43
2019-05-19T07:36:09.028Z,17.82
2019-05-19T07:38:39.061Z,18.40
2019-05-19T07:41:10.519Z,18.47
2019-05-19T07:43:41.394Z,18.99
2019-05-19T07:46:16.326Z,19.41
2019-05-19T07:48:46.167Z,19.14
2019-05-19T07:51:15.837Z,19.56
2019-05-19T07:53:46.892Z,19.74
2019-05-19T07:56:18.092Z,19.82
2019-05-19T07:58:47.924Z,19.52
2019-05-19T08:01:17.989Z,19.31
2019-05-19T08:03:47.670Z,19.69
2019-05-19T08:06:18.508Z,21.35
2019-05-19T08:08:48.979Z,21.34
2019-05-19T08:11:19.181Z,20.64
2019-05-19T08:13:50.033Z,20.28
2019-05-19T08:16:21.944Z,20.39
2019-05-19T08:18:53.837Z,20.43
2019-05-19T08:21:24.930Z,20.54
2019-05-19T08:24:00.694Z,20.69
2019-05-19T08:26:29.021Z,20.92
2019-05-19T08:29:01.142Z,20.77
2019-05-19T08:31:33.062Z,20.55
2019-05-19T08:34:03.270Z,20.59
2019-05-19T08:36:34.065Z,20.54
2019-05-19T08:39:06.575Z,20.62
2019-05-19T08:41:37.497Z,20.77
2019-05-19T08:44:08.152Z,20.85
2019-05-19T08:46:38.358Z,20.76
2019-05-19T08:49:08.973Z,20.72
2019-05-19T08:51:39.289Z,20.45
2019-05-19T08:54:15.166Z,20.50
2019-05-19T08:56:41.243Z,20.66
2019-05-19T08:59:11.278Z,20.71
2019-05-19T09:01:42.899Z,20.90
2019-05-19T09:04:14.410Z,21.32
2019-05-19T09:06:46.434Z,20.89
2019-05-19T09:09:17.282Z,20.11
2019-05-19T09:11:48.034Z,20.97
2019-05-19T09:14:18.138Z,21.11
2019-05-19T09:16:48.541Z,21.19
2019-05-19T09:19:18.461Z,21.07
2019-05-19T09:21:50.086Z,21.22
2019-05-19T09:24:30.238Z,21.14
2019-05-19T09:26:58.361Z,21.10
2019-05-19T09:29:29.633Z,21.24
2019-05-19T09:32:02.617Z,21.66
2019-05-19T09:34:33.158Z,21.63
2019-05-19T09:37:05.594Z,21.43
2019-05-19T09:39:36.328Z,21.42
2019-05-19T09:42:08.569Z,21.47
2019-05-19T09:44:41.186Z,21.51
2019-05-19T09:47:11.459Z,21.65
2019-05-19T09:49:41.353Z,21.72
2019-05-19T09:52:11.088Z,22.22
2019-05-19T09:54:45.287Z,22.56
2019-05-19T09:57:13.331Z,22.61
2019-05-19T09:59:43.648Z,22.39
2019-05-19T10:02:15.099Z,22.18
2019-05-19T10:04:45.609Z,21.57
2019-05-19T10:07:16.599Z,20.91
2019-05-19T10:10:04.106Z,20.82
2019-05-19T10:12:33.774Z,20.26
2019-05-19T10:15:04.226Z,19.75
2019-05-19T10:17:34.306Z,19.62
2019-05-19T10:20:04.728Z,19.38
2019-05-19T10:22:36.011Z,19.15
2019-05-19T10:25:20.963Z,19.33
2019-05-19T10:27:39.637Z,19.34
2019-05-19T10:30:10.514Z,19.50
2019-05-19T10:32:43.939Z,19.49
2019-05-19T10:35:14.184Z,19.41
2019-05-19T10:37:45.786Z,19.63
2019-05-19T10:40:15.654Z,20.01
2019-05-19T10:42:48.675Z,19.84
2019-05-19T10:45:18.782Z,20.07
2019-05-19T10:47:48.443Z,20.30
2019-05-19T10:50:18.669Z,20.19
2019-05-19T10:52:49.221Z,20.39
2019-05-19T10:55:19.283Z,20.33
2019-05-19T10:57:50.232Z,20.41
2019-05-19T11:00:20.831Z,20.06
2019-05-19T11:02:50.902Z,20.18
2019-05-19T11:05:23.050Z,20.08
2019-05-19T11:07:54.049Z,20.13
2019-05-19T11:10:24.593Z,20.47
2019-05-19T11:12:54.879Z,20.51
2019-05-19T11:15:26.306Z,20.45
2019-05-19T11:17:56.978Z,20.52
2019-05-19T11:20:27.518Z,20.57
2019-05-19T11:22:57.673Z,20.81
2019-05-19T11:25:33.890Z,21.05
2019-05-19T11:27:59.068Z,20.97
2019-05-19T11:30:29.086Z,21.02
2019-05-19T11:32:59.023Z,21.17
2019-05-19T11:35:28.892Z,21.41
2019-05-19T11:37:58.903Z,21.59
2019-05-19T11:40:28.534Z,21.64
2019-05-19T11:42:58.517Z,21.70
2019-05-19T11:45:28.137Z,21.62
2019-05-19T11:47:58.257Z,21.71
2019-05-19T11:50:28.084Z,21.65
2019-05-19T11:52:57.745Z,21.80
2019-05-19T11:55:27.629Z,21.89
2019-05-19T11:57:58.053Z,22.02
2019-05-19T12:00:27.753Z,22.07
2019-05-19T12:02:57.743Z,22.12
2019-05-19T12:05:27.812Z,22.09
2019-05-19T12:07:57.721Z,21.96
2019-05-19T12:10:28.530Z,21.85
2019-05-19T12:12:58.714Z,22.07
2019-05-19T12:15:28.765Z,22.19
2019-05-19T12:17:58.788Z,22.14
2019-05-19T12:20:28.441Z,22.06
2019-05-19T12:22:58.100Z,22.16
2019-05-19T12:25:27.644Z,22.30
2019-05-19T12:27:57.309Z,22.42
2019-05-19T12:30:27.053Z,22.45
2019-05-19T12:32:59.306Z,22.39
2019-05-19T12:35:28.588Z,21.65
2019-05-19T12:37:58.494Z,22.25
2019-05-19T12:40:28.421Z,22.50
2019-05-19T12:42:58.000Z,22.44
2019-05-19T12:45:28.113Z,22.54
2019-05-19T12:47:57.736Z,22.38
2019-05-19T12:50:27.440Z,22.44
2019-05-19T12:52:57.461Z,22.37
2019-05-19T12:55:26.982Z,22.21
2019-05-19T12:57:56.714Z,22.37
2019-05-19T13:00:29.528Z,22.75
2019-05-19T13:03:00.022Z,22.80
2019-05-19T13:05:29.795Z,22.73
2019-05-19T13:07:59.899Z,22.83
2019-05-19T13:10:29.481Z,22.97
2019-05-19T13:12:59.096Z,23.07
2019-05-19T13:15:28.943Z,22.81
2019-05-19T13:17:58.886Z,23.01
2019-05-19T13:20:28.495Z,22.81
2019-05-19T13:22:58.157Z,22.92
2019-05-19T13:27:56.722Z,23.43
2019-05-19T13:30:26.671Z,23.22
2019-05-19T13:32:59.015Z,23.34
2019-05-19T13:35:38.247Z,23.56
2019-05-19T13:38:08.534Z,23.64
2019-05-19T13:40:38.253Z,23.55
2019-05-19T13:43:09.499Z,23.57
2019-05-19T13:45:41.502Z,23.55
2019-05-19T13:48:11.362Z,23.52
2019-05-19T13:50:40.866Z,23.65
2019-05-19T13:53:11.047Z,23.80
2019-05-19T13:55:45.180Z,23.73
2019-05-19T13:58:15.587Z,23.74
2019-05-19T14:00:45.782Z,23.94
2019-05-19T14:03:16.162Z,23.72
2019-05-19T14:05:46.493Z,23.81
2019-05-19T14:08:16.117Z,23.94
2019-05-19T14:10:45.919Z,24.20
2019-05-19T14:13:18.047Z,23.89
2019-05-19T14:15:48.192Z,23.89
2019-05-19T14:18:19.490Z,24.05
2019-05-19T14:20:49.327Z,23.84
2019-05-19T14:23:19.442Z,23.94
2019-05-19T14:25:50.026Z,24.01
2019-05-19T14:28:20.922Z,24.07
2019-05-19T14:30:51.093Z,24.06
2019-05-19T14:33:20.993Z,23.90
2019-05-19T14:35:50.881Z,23.96
2019-05-19T14:38:21.218Z,24.10
2019-05-19T14:40:51.028Z,24.12
2019-05-19T14:43:23.112Z,23.80
2019-05-19T14:45:55.051Z,24.03
2019-05-19T14:48:25.013Z,23.89
2019-05-19T14:50:55.939Z,23.90
2019-05-19T14:53:26.319Z,23.94
2019-05-19T14:55:56.130Z,24.21
2019-05-19T14:58:26.094Z,24.38
2019-05-19T15:00:56.338Z,24.42
2019-05-19T15:03:26.091Z,24.37
2019-05-19T15:05:55.754Z,24.55
2019-05-19T15:08:25.921Z,24.53
2019-05-19T15:10:55.836Z,24.45
2019-05-19T15:13:25.924Z,24.15
2019-05-19T15:15:58.019Z,23.88
2019-05-19T15:18:27.707Z,23.90
2019-05-19T15:20:57.682Z,23.81
2019-05-19T15:23:27.527Z,23.62
2019-05-19T15:25:57.594Z,23.46
2019-05-19T15:28:28.738Z,23.42
2019-05-19T15:30:58.470Z,23.69
2019-05-19T15:33:37.872Z,23.80
2019-05-19T15:36:01.570Z,23.81
2019-05-19T15:38:32.036Z,23.87
2019-05-19T15:41:02.060Z,24.17
2019-05-19T15:43:32.125Z,24.31
2019-05-19T15:46:02.336Z,24.29
2019-05-19T15:48:32.423Z,24.28
2019-05-19T15:51:02.501Z,24.22
2019-05-19T15:53:32.491Z,24.15
2019-05-19T15:56:03.210Z,24.03
2019-05-19T15:58:35.191Z,24.03
2019-05-19T16:01:05.973Z,23.93
2019-05-19T16:03:35.765Z,23.85
2019-05-19T16:06:06.208Z,23.78
2019-05-19T16:08:36.275Z,23.64
2019-05-19T16:11:06.820Z,23.50
2019-05-19T16:13:36.658Z,23.42
2019-05-19T16:16:06.563Z,23.43
2019-05-19T16:18:36.473Z,23.37
2019-05-19T16:21:06.826Z,23.39
2019-05-19T16:23:37.796Z,23.44
2019-05-19T16:26:08.841Z,23.41
2019-05-19T16:28:38.693Z,23.33
2019-05-19T16:31:08.516Z,23.38
2019-05-19T16:33:38.676Z,23.42
2019-05-19T16:36:08.567Z,23.38
2019-05-19T16:38:38.378Z,23.38
2019-05-19T16:41:08.763Z,23.41
2019-05-19T16:43:38.545Z,23.39
2019-05-19T16:46:11.327Z,23.36
2019-05-19T16:48:41.704Z,23.29
2019-05-19T16:51:12.746Z,23.18
2019-05-19T16:53:44.215Z,23.19
2019-05-19T16:56:14.806Z,23.34
2019-05-19T16:58:45.910Z,23.33
2019-05-19T17:01:19.791Z,23.35
2019-05-19T17:03:48.897Z,23.30
2019-05-19T17:06:21.531Z,23.29
2019-05-19T17:08:52.718Z,23.27
2019-05-19T17:11:23.231Z,23.17
2019-05-19T17:13:53.782Z,23.11
2019-05-19T17:16:24.605Z,23.08
2019-05-19T17:18:54.272Z,23.01
2019-05-19T17:21:27.082Z,23.03
2019-05-19T17:23:56.929Z,22.99
2019-05-19T17:26:27.018Z,23.00
2019-05-19T17:29:01.091Z,23.01
2019-05-19T17:31:31.306Z,23.01
2019-05-19T17:34:03.902Z,22.99
2019-05-19T17:36:33.716Z,23.03
2019-05-19T17:39:06.420Z,22.96
2019-05-19T17:41:36.164Z,22.96
2019-05-19T17:44:06.324Z,22.89
2019-05-19T17:46:38.226Z,22.90
2019-05-19T17:49:07.881Z,22.86
2019-05-19T17:51:37.638Z,22.80
2019-05-19T17:54:08.404Z,22.69
2019-05-19T17:56:40.772Z,22.63
2019-05-19T17:59:16.473Z,22.58
2019-05-19T18:01:44.393Z,22.53
2019-05-19T18:04:14.386Z,22.55
2019-05-19T18:06:44.171Z,22.47
2019-05-19T18:09:14.123Z,22.41
2019-05-19T18:11:43.625Z,22.39
2019-05-19T18:14:13.338Z,22.33
2019-05-19T18:16:43.333Z,22.30
2019-05-19T18:19:14.565Z,22.25
2019-05-19T18:21:45.533Z,22.26
2019-05-19T18:24:15.160Z,22.22
2019-05-19T18:26:45.092Z,22.24
2019-05-19T18:29:15.139Z,22.17
2019-05-19T18:31:45.142Z,22.08
2019-05-19T18:34:15.069Z,22.13
2019-05-19T18:36:44.836Z,22.12
2019-05-19T18:39:14.909Z,22.11
2019-05-19T18:41:46.725Z,22.09
2019-05-19T18:44:16.706Z,22.06
2019-05-19T18:46:46.493Z,22.04
2019-05-19T18:49:16.826Z,21.99
2019-05-19T18:51:48.688Z,21.96
2019-05-19T18:54:18.392Z,21.86
2019-05-19T18:56:51.027Z,21.81
2019-05-19T18:59:19.705Z,21.79
2019-05-19T19:01:50.938Z,21.73
2019-05-19T19:04:20.949Z,21.67
2019-05-19T19:06:50.674Z,21.62
2019-05-19T19:09:20.865Z,21.57
2019-05-19T19:11:50.849Z,21.47
2019-05-19T19:14:21.332Z,21.44
2019-05-19T19:16:51.208Z,21.38
2019-05-19T19:19:21.240Z,21.30
2019-05-19T19:22:05.070Z,21.31
2019-05-19T19:24:38.721Z,21.21
2019-05-19T19:27:08.673Z,21.15
2019-05-19T19:29:38.721Z,21.10
2019-05-19T19:32:11.006Z,21.06
2019-05-19T19:34:41.123Z,21.03
2019-05-19T19:37:10.901Z,20.93
2019-05-19T19:39:40.855Z,20.91
2019-05-19T19:42:10.692Z,20.88
2019-05-19T19:44:41.261Z,20.85
2019-05-19T19:47:11.049Z,20.79
2019-05-19T19:49:40.830Z,20.74
2019-05-19T19:52:10.608Z,20.72
2019-05-19T19:54:40.699Z,20.69
2019-05-19T19:57:10.391Z,20.61
2019-05-19T19:59:40.412Z,20.61
2019-05-19T20:02:10.399Z,20.58
2019-05-19T20:04:40.013Z,20.53
2019-05-19T20:07:09.518Z,20.53
2019-05-19T20:09:39.399Z,20.44
2019-05-19T20:12:09.338Z,20.42
2019-05-19T20:14:42.347Z,20.33
2019-05-19T20:17:12.370Z,20.29
2019-05-19T20:19:42.069Z,20.27
2019-05-19T20:22:12.472Z,20.26
2019-05-19T20:24:42.076Z,20.22
2019-05-19T20:27:11.894Z,20.22
2019-05-19T20:29:42.047Z,20.20
2019-05-19T20:32:14.146Z,20.19
2019-05-19T20:34:45.412Z,20.17
2019-05-19T20:37:15.385Z,20.09
2019-05-19T20:39:45.200Z,20.02
2019-05-19T20:42:17.735Z,19.91
2019-05-19T20:44:47.834Z,19.88
2019-05-19T20:47:17.542Z,19.81
2019-05-19T20:49:47.411Z,19.79
2019-05-19T20:52:17.134Z,19.74
2019-05-19T20:54:46.769Z,19.70
2019-05-19T20:57:17.516Z,19.68
2019-05-19T20:59:47.267Z,19.56
2019-05-19T21:02:17.791Z,19.53
2019-05-19T21:04:47.617Z,19.48
2019-05-19T21:07:17.309Z,19.46
2019-05-19T21:09:46.988Z,19.45
2019-05-19T21:12:16.983Z,19.39
2019-05-19T21:14:46.990Z,19.37
2019-05-19T21:17:16.743Z,19.35
2019-05-19T21:19:46.541Z,19.35
2019-05-19T21:22:16.335Z,19.31
2019-05-19T21:24:46.327Z,19.19
2019-05-19T21:27:15.951Z,19.11
2019-05-19T21:29:45.692Z,19.09
2019-05-19T21:32:15.145Z,19.08
2019-05-19T21:34:44.767Z,19.02
2019-05-19T21:37:14.764Z,19.04
2019-05-19T21:39:44.809Z,18.97
2019-05-19T21:42:14.653Z,19.00
2019-05-19T21:44:44.722Z,19.03
2019-05-19T21:47:14.280Z,18.99
2019-05-19T21:49:44.011Z,19.02
2019-05-19T21:52:13.724Z,19.03
2019-05-19T21:54:43.338Z,18.94
2019-05-19T21:57:12.792Z,19.05
2019-05-19T21:59:42.432Z,19.04
2019-05-19T22:02:11.994Z,19.03
2019-05-19T22:04:41.618Z,19.00
2019-05-19T22:07:15.492Z,18.95
2019-05-19T22:09:45.157Z,18.89
2019-05-19T22:12:14.983Z,18.90
2019-05-19T22:14:44.830Z,18.87
2019-05-19T22:17:14.440Z,18.87
2019-05-19T22:19:43.864Z,18.82
2019-05-19T22:22:13.781Z,18.83
2019-05-19T22:24:43.495Z,18.85
2019-05-19T22:27:13.243Z,18.86
2019-05-19T22:29:42.919Z,18.79
2019-05-19T22:32:12.501Z,18.78
2019-05-19T22:34:42.219Z,18.71
2019-05-19T22:37:11.924Z,18.65
2019-05-19T22:39:41.470Z,18.69
2019-05-19T22:42:10.965Z,18.67
2019-05-19T22:44:40.636Z,18.65
2019-05-19T22:47:10.451Z,18.63
2019-05-19T22:49:40.067Z,18.60
2019-05-19T22:52:09.894Z,18.61
2019-05-19T22:54:39.571Z,18.64
2019-05-19T22:57:09.057Z,18.58
2019-05-19T22:59:38.812Z,18.56
2019-05-19T23:02:09.327Z,18.54
2019-05-19T23:04:39.050Z,18.46
2019-05-19T23:07:08.572Z,18.35
2019-05-19T23:09:38.445Z,18.28
2019-05-19T23:12:08.048Z,18.18
2019-05-19T23:14:37.539Z,18.13
2019-05-19T23:17:07.171Z,18.07
2019-05-19T23:19:36.680Z,18.07
2019-05-19T23:22:06.657Z,18.07
2019-05-19T23:24:36.424Z,18.06
2019-05-19T23:27:05.957Z,18.03
2019-05-19T23:29:35.525Z,18.00
2019-05-19T23:32:07.422Z,18.02
2019-05-19T23:34:36.831Z,18.03
2019-05-19T23:37:06.799Z,18.05
2019-05-19T23:39:36.629Z,18.02
2019-05-19T23:42:06.203Z,18.03
2019-05-19T23:44:35.840Z,18.02
2019-05-19T23:47:05.383Z,18.07
2019-05-19T23:49:35.603Z,18.10
2019-05-19T23:52:05.356Z,18.07
2019-05-19T23:54:34.861Z,18.09
2019-05-19T23:57:04.593Z,18.08
2019-05-19T23:59:34.257Z,18.13
